createdAt,value
2022-09-12T00:01:28.493Z,94.45
2022-09-12T00:04:00.961Z,95.19
2022-09-12T00:06:35.802Z,94.83
2022-09-12T00:09:15.134Z,94.94
2022-09-12T00:11:46.946Z,95.26
2022-09-12T00:14:19.932Z,95.06
2022-09-12T00:16:47.767Z,95.06
2022-09-12T00:19:19.216Z,94.92
2022-09-12T00:21:50.323Z,94.94
2022-09-12T00:24:19.959Z,95.34
2022-09-12T00:26:51.143Z,95.68
2022-09-12T00:29:21.776Z,95.36
2022-09-12T00:31:49.786Z,95.27
2022-09-12T00:34:19.305Z,95.80
2022-09-12T00:36:48.781Z,94.92
2022-09-12T00:39:17.966Z,95.18
2022-09-12T00:41:45.869Z,95.06
2022-09-12T00:44:16.909Z,94.90
2022-09-12T00:46:58.007Z,94.91
2022-09-12T00:49:49.773Z,94.30
2022-09-12T00:52:40.272Z,93.88
2022-09-12T00:55:28.106Z,94.44
2022-09-12T00:58:16.060Z,94.28
2022-09-12T01:00:44.120Z,94.14
2022-09-12T01:03:20.151Z,93.83
2022-09-12T01:06:26.500Z,93.89
2022-09-12T01:08:57.767Z,93.65
2022-09-12T01:11:25.513Z,94.01
2022-09-12T01:13:56.053Z,93.24
2022-09-12T01:16:27.372Z,93.44
2022-09-12T01:19:46.957Z,94.01
2022-09-12T01:22:56.983Z,93.71
2022-09-12T01:26:03.458Z,93.61
2022-09-12T01:28:55.641Z,93.60
2022-09-12T01:31:52.369Z,93.33
2022-09-12T01:34:29.979Z,93.01
2022-09-12T01:37:38.451Z,92.27
2022-09-12T01:40:40.879Z,92.84
2022-09-12T01:43:31.981Z,92.64
2022-09-12T01:46:24.642Z,93.15
2022-09-12T01:49:08.318Z,92.87
2022-09-12T01:51:55.168Z,92.82
2022-09-12T01:54:56.142Z,92.77
2022-09-12T01:57:45.038Z,93.47
2022-09-12T02:00:14.588Z,92.86
2022-09-12T02:03:10.381Z,92.79
2022-09-12T02:05:50.437Z,92.73
2022-09-12T02:08:36.021Z,93.21
2022-09-12T02:11:13.919Z,93.08
2022-09-12T02:14:00.619Z,92.71
2022-09-12T02:16:59.841Z,92.76
2022-09-12T02:20:37.493Z,93.25
2022-09-12T02:23:17.252Z,92.98
2022-09-12T02:25:51.418Z,93.63
2022-09-12T02:28:35.603Z,93.79
2022-09-12T02:31:34.860Z,94.15
2022-09-12T02:34:44.830Z,95.19
2022-09-12T02:37:37.576Z,94.84
2022-09-12T02:40:07.825Z,94.90
2022-09-12T02:42:37.241Z,95.25
2022-09-12T02:45:05.638Z,95.37
2022-09-12T02:48:09.966Z,95.25
2022-09-12T02:50:38.569Z,95.23
2022-09-12T02:53:09.239Z,94.94
2022-09-12T02:55:40.823Z,94.76
2022-09-12T02:58:19.869Z,94.89
2022-09-12T03:01:22.295Z,95.48
2022-09-12T03:04:10.607Z,96.04
2022-09-12T03:06:59.307Z,95.56
2022-09-12T03:10:06.981Z,94.96
2022-09-12T03:13:06.479Z,95.49
2022-09-12T03:16:27.040Z,95.21
2022-09-12T03:19:33.291Z,96.35
2022-09-12T03:22:29.218Z,96.33
2022-09-12T03:25:16.673Z,96.38
2022-09-12T03:28:17.033Z,96.11
2022-09-12T03:30:51.657Z,95.85
2022-09-12T03:33:23.042Z,96.07
2022-09-12T03:35:54.058Z,96.45
2022-09-12T03:38:21.694Z,96.19
2022-09-12T03:40:54.109Z,96.43
2022-09-12T03:43:22.462Z,96.75
2022-09-12T03:45:55.774Z,96.52
2022-09-12T03:48:23.439Z,96.18
2022-09-12T03:50:51.103Z,96.74
2022-09-12T03:53:22.611Z,96.69
2022-09-12T03:55:52.050Z,96.30
2022-09-12T03:58:19.686Z,96.79
2022-09-12T04:00:47.408Z,96.37
2022-09-12T04:03:19.410Z,96.02
2022-09-12T04:05:47.481Z,96.64
2022-09-12T04:08:15.709Z,96.56
2022-09-12T04:10:43.452Z,96.99
2022-09-12T04:13:11.122Z,96.64
2022-09-12T04:15:41.758Z,96.68
2022-09-12T04:18:09.419Z,97.54
2022-09-12T04:20:38.856Z,97.50
2022-09-12T04:23:06.473Z,97.59
2022-09-12T04:25:34.131Z,96.91
2022-09-12T04:28:02.757Z,97.10
2022-09-12T04:30:30.456Z,97.45
2022-09-12T04:32:58.113Z,97.58
2022-09-12T04:35:27.752Z,98.05
2022-09-12T04:37:57.322Z,97.67
2022-09-12T04:40:26.805Z,97.74
2022-09-12T04:42:56.166Z,97.88
2022-09-12T04:45:23.973Z,97.61
2022-09-12T04:47:51.953Z,97.31
2022-09-12T04:50:21.478Z,96.80
2022-09-12T04:52:55.542Z,97.72
2022-09-12T04:55:25.662Z,97.40
2022-09-12T04:57:53.395Z,97.17
2022-09-12T05:00:22.924Z,97.00
2022-09-12T05:02:52.482Z,96.74
2022-09-12T05:05:20.205Z,97.03
2022-09-12T05:07:49.751Z,95.99
2022-09-12T05:10:18.407Z,95.50
2022-09-12T05:12:46.089Z,95.01
2022-09-12T05:15:13.853Z,95.19
2022-09-12T05:17:43.347Z,94.78
2022-09-12T05:20:12.955Z,94.29
2022-09-12T05:22:42.486Z,93.61
2022-09-12T05:25:13.677Z,93.03
2022-09-12T05:27:41.296Z,92.44
2022-09-12T05:30:13.118Z,92.00
2022-09-12T05:32:40.988Z,92.03
2022-09-12T05:35:11.291Z,91.33
2022-09-12T05:37:40.698Z,90.43
2022-09-12T05:40:09.653Z,89.73
2022-09-12T05:42:38.146Z,88.77
2022-09-12T05:45:08.799Z,89.17
2022-09-12T05:47:38.206Z,88.07
2022-09-12T05:50:10.960Z,88.08
2022-09-12T05:52:40.319Z,81.18
2022-09-12T05:55:10.276Z,81.67
2022-09-12T05:57:46.331Z,82.16
2022-09-12T06:00:17.175Z,79.60
2022-09-12T06:02:44.929Z,81.68
2022-09-12T06:05:12.549Z,81.88
2022-09-12T06:07:41.993Z,80.84
2022-09-12T06:10:10.229Z,78.05
2022-09-12T06:12:39.658Z,69.90
2022-09-12T06:15:09.958Z,69.45
2022-09-12T06:17:39.386Z,68.62
2022-09-12T06:20:09.325Z,60.04
2022-09-12T06:22:37.008Z,53.83
2022-09-12T06:25:05.972Z,57.13
2022-09-12T06:27:35.355Z,54.73
2022-09-12T06:30:05.762Z,49.72
2022-09-12T06:32:35.164Z,61.11
2022-09-12T06:35:05.677Z,65.57
2022-09-12T06:37:35.140Z,69.73
2022-09-12T06:40:05.015Z,71.46
2022-09-12T06:42:33.167Z,70.99
2022-09-12T06:45:00.838Z,70.66
2022-09-12T06:47:30.390Z,70.32
2022-09-12T06:49:59.845Z,69.13
2022-09-12T06:52:29.383Z,69.15
2022-09-12T06:54:58.836Z,68.37
2022-09-12T06:57:30.574Z,69.05
2022-09-12T06:59:59.988Z,68.27
2022-09-12T07:02:29.495Z,67.94
2022-09-12T07:04:57.168Z,67.03
2022-09-12T07:07:25.531Z,66.67
2022-09-12T07:09:57.772Z,66.20
2022-09-12T07:12:30.162Z,65.40
2022-09-12T07:14:59.545Z,64.52
2022-09-12T07:17:29.059Z,56.02
2022-09-12T07:19:57.393Z,60.49
2022-09-12T07:22:26.823Z,64.16
2022-09-12T07:24:55.902Z,63.31
2022-09-12T07:27:24.323Z,63.36
2022-09-12T07:29:53.726Z,63.20
2022-09-12T07:32:23.931Z,62.66
2022-09-12T07:34:53.535Z,61.33
2022-09-12T07:37:23.894Z,61.42
2022-09-12T07:39:53.500Z,60.18
2022-09-12T07:42:21.841Z,61.34
2022-09-12T07:44:52.679Z,59.97
2022-09-12T07:47:21.376Z,58.53
2022-09-12T07:49:50.792Z,58.83
2022-09-12T07:52:24.801Z,58.48
2022-09-12T07:54:54.197Z,57.51
2022-09-12T07:57:23.671Z,56.70
2022-09-12T07:59:53.512Z,57.10
2022-09-12T08:02:23.012Z,56.40
2022-09-12T08:04:52.073Z,56.57
2022-09-12T08:07:20.705Z,57.29
2022-09-12T08:09:50.117Z,56.15
2022-09-12T08:12:20.500Z,55.29
2022-09-12T08:14:49.924Z,55.70
2022-09-12T08:17:19.676Z,55.15
2022-09-12T08:19:49.376Z,54.97
2022-09-12T08:22:22.130Z,56.20
2022-09-12T08:24:51.659Z,55.58
2022-09-12T08:27:20.004Z,54.01
2022-09-12T08:29:49.472Z,55.41
2022-09-12T08:32:17.780Z,54.11
2022-09-12T08:34:47.286Z,53.51
2022-09-12T08:37:16.700Z,54.57
2022-09-12T08:39:46.129Z,53.35
2022-09-12T08:42:48.458Z,53.22
2022-09-12T08:45:30.037Z,51.81
2022-09-12T08:48:01.827Z,51.05
2022-09-12T08:50:32.686Z,51.87
2022-09-12T08:53:24.497Z,51.89
2022-09-12T08:55:59.422Z,50.80
2022-09-12T08:58:40.436Z,49.38
2022-09-12T09:01:42.103Z,49.63
2022-09-12T09:05:01.725Z,50.37
2022-09-12T09:08:23.691Z,50.59
2022-09-12T09:11:32.937Z,50.03
2022-09-12T09:14:49.260Z,50.67
2022-09-12T09:17:58.207Z,50.62
2022-09-12T09:20:37.224Z,49.68
2022-09-12T09:23:27.718Z,48.86
2022-09-12T09:26:26.596Z,50.11
2022-09-12T09:29:05.303Z,48.96
2022-09-12T09:31:39.435Z,48.95
2022-09-12T09:34:23.772Z,48.54
2022-09-12T09:37:19.825Z,47.23
2022-09-12T09:40:18.271Z,48.21
2022-09-12T09:43:23.076Z,48.85
2022-09-12T09:45:54.145Z,52.54
2022-09-12T09:48:41.985Z,48.67
2022-09-12T09:51:10.499Z,46.49
2022-09-12T09:54:45.109Z,47.21
2022-09-12T09:57:36.252Z,48.84
2022-09-12T10:00:38.835Z,48.94
2022-09-12T10:03:13.708Z,49.72
2022-09-12T10:06:32.509Z,54.19
2022-09-12T10:09:23.918Z,55.61
2022-09-12T10:11:55.830Z,51.82
2022-09-12T10:14:45.448Z,49.50
2022-09-12T10:17:42.698Z,49.51
2022-09-12T10:20:40.067Z,51.72
2022-09-12T10:23:32.489Z,50.69
2022-09-12T10:26:10.369Z,48.83
2022-09-12T10:28:52.576Z,49.32
2022-09-12T10:31:46.518Z,50.53
2022-09-12T10:34:40.639Z,51.04
2022-09-12T10:37:25.749Z,50.67
2022-09-12T10:39:59.347Z,50.91
2022-09-12T10:42:53.167Z,51.35
2022-09-12T10:45:31.248Z,52.00
2022-09-12T10:48:22.911Z,51.03
2022-09-12T10:50:52.428Z,49.19
2022-09-12T10:53:34.707Z,48.01
2022-09-12T10:56:12.802Z,49.09
2022-09-12T10:59:22.942Z,48.39
2022-09-12T11:02:28.860Z,49.95
2022-09-12T11:05:22.841Z,50.25
2022-09-12T11:08:27.781Z,50.55
2022-09-12T11:11:48.064Z,51.95
2022-09-12T11:15:15.272Z,52.37
2022-09-12T11:18:14.630Z,52.16
2022-09-12T11:21:30.777Z,52.68
2022-09-12T11:24:39.802Z,53.93
2022-09-12T11:27:42.160Z,54.88
2022-09-12T11:30:16.550Z,55.24
2022-09-12T11:33:40.867Z,55.35
2022-09-12T11:36:48.368Z,56.97
2022-09-12T11:39:27.164Z,56.93
2022-09-12T11:42:03.035Z,56.05
2022-09-12T11:44:43.491Z,55.60
2022-09-12T11:47:14.881Z,55.92
2022-09-12T11:49:51.182Z,55.44
2022-09-12T11:52:34.976Z,54.26
2022-09-12T11:55:20.209Z,54.34
2022-09-12T11:57:59.384Z,54.87
2022-09-12T12:00:41.462Z,54.77
2022-09-12T12:03:32.680Z,54.43
2022-09-12T12:06:19.826Z,54.60
2022-09-12T12:08:50.805Z,53.63
2022-09-12T12:11:43.241Z,54.32
2022-09-12T12:14:36.241Z,55.29
2022-09-12T12:17:13.825Z,53.19
2022-09-12T12:19:44.068Z,51.99
2022-09-12T12:22:25.489Z,53.58
2022-09-12T12:25:13.127Z,54.58
2022-09-12T12:28:02.049Z,53.54
2022-09-12T12:30:30.308Z,52.41
2022-09-12T12:33:10.983Z,53.26
2022-09-12T12:35:48.355Z,54.40
2022-09-12T12:38:32.685Z,57.38
2022-09-12T12:41:20.271Z,60.97
2022-09-12T12:43:57.725Z,62.78
2022-09-12T12:46:30.504Z,64.68
2022-09-12T12:49:27.050Z,64.14
2022-09-12T12:51:57.068Z,65.81
2022-09-12T12:54:51.280Z,66.07
2022-09-12T12:57:50.494Z,65.45
2022-09-12T13:00:26.222Z,66.84
2022-09-12T13:03:09.150Z,67.72
2022-09-12T13:05:54.273Z,65.95
2022-09-12T13:08:33.939Z,65.23
2022-09-12T13:11:16.803Z,64.68
2022-09-12T13:14:09.639Z,62.23
2022-09-12T13:16:58.904Z,61.62
2022-09-12T13:19:38.266Z,61.11
2022-09-12T13:22:11.123Z,61.02
2022-09-12T13:24:52.260Z,58.57
2022-09-12T13:27:25.576Z,57.94
2022-09-12T13:30:15.789Z,57.28
2022-09-12T13:32:45.423Z,55.71
2022-09-12T13:36:25.491Z,53.08
2022-09-12T13:39:28.543Z,51.17
2022-09-12T13:42:32.312Z,51.73
2022-09-12T13:45:21.391Z,49.51
2022-09-12T13:48:00.960Z,50.06
2022-09-12T13:50:46.800Z,50.06
2022-09-12T13:53:23.791Z,50.52
2022-09-12T13:55:59.734Z,49.23
2022-09-12T13:58:37.202Z,48.54
2022-09-12T14:01:15.956Z,47.69
2022-09-12T14:04:15.030Z,46.97
2022-09-12T14:06:50.912Z,46.29
2022-09-12T14:09:36.157Z,46.23
2022-09-12T14:12:44.009Z,45.89
2022-09-12T14:15:31.012Z,46.25
2022-09-12T14:18:04.889Z,45.85
2022-09-12T14:20:38.714Z,46.71
2022-09-12T14:23:32.354Z,45.87
2022-09-12T14:26:09.782Z,45.24
2022-09-12T14:28:48.440Z,43.09
2022-09-12T14:31:32.988Z,42.62
2022-09-12T14:34:17.891Z,42.19
2022-09-12T14:36:56.253Z,42.22
2022-09-12T14:39:41.922Z,42.66
2022-09-12T14:42:22.243Z,43.75
2022-09-12T14:45:06.115Z,43.73
2022-09-12T14:47:42.742Z,43.39
2022-09-12T14:50:24.628Z,42.86
2022-09-12T14:53:21.794Z,43.57
2022-09-12T14:56:16.267Z,43.73
2022-09-12T14:58:46.138Z,43.43
2022-09-12T15:01:15.508Z,44.42
2022-09-12T15:03:49.339Z,43.65
2022-09-12T15:06:36.895Z,43.98
2022-09-12T15:09:14.506Z,43.75
2022-09-12T15:11:43.959Z,43.74
2022-09-12T15:14:14.770Z,43.70
2022-09-12T15:16:44.157Z,44.37
2022-09-12T15:19:12.520Z,45.95
2022-09-12T15:21:41.633Z,45.28
2022-09-12T15:24:11.078Z,44.99
2022-09-12T15:26:39.388Z,46.43
2022-09-12T15:29:07.686Z,46.60
2022-09-12T15:31:36.033Z,44.94
2022-09-12T15:34:08.500Z,44.39
2022-09-12T15:36:37.916Z,45.75
2022-09-12T15:39:07.331Z,45.27
2022-09-12T15:41:39.039Z,45.30
2022-09-12T15:44:13.347Z,45.59
2022-09-12T15:46:42.895Z,45.31
2022-09-12T15:49:12.398Z,45.46
2022-09-12T15:51:41.808Z,44.55
2022-09-12T15:54:15.336Z,45.86
2022-09-12T15:56:44.733Z,45.55
2022-09-12T15:59:14.200Z,45.78
2022-09-12T16:01:43.697Z,46.16
2022-09-12T16:04:27.526Z,46.22
2022-09-12T16:06:57.364Z,46.48
2022-09-12T16:09:25.780Z,47.42
2022-09-12T16:11:56.404Z,47.62
2022-09-12T16:14:25.889Z,47.62
2022-09-12T16:16:57.194Z,47.64
2022-09-12T16:19:26.709Z,48.11
2022-09-12T16:21:55.262Z,48.73
2022-09-12T16:24:23.647Z,48.64
2022-09-12T16:26:51.958Z,49.28
2022-09-12T16:29:21.369Z,49.47
2022-09-12T16:31:52.493Z,50.30
2022-09-12T16:34:20.828Z,49.74
2022-09-12T16:36:52.961Z,50.15
2022-09-12T16:39:24.873Z,51.30
2022-09-12T16:41:54.315Z,50.65
2022-09-12T16:44:22.661Z,50.75
2022-09-12T16:46:51.251Z,49.76
2022-09-12T16:49:19.678Z,49.61
2022-09-12T16:51:48.426Z,50.08
2022-09-12T16:54:17.619Z,50.99
2022-09-12T16:56:47.923Z,50.83
2022-09-12T16:59:16.942Z,51.49
2022-09-12T17:01:45.514Z,52.28
2022-09-12T17:04:14.023Z,51.76
2022-09-12T17:06:45.274Z,51.75
2022-09-12T17:09:18.530Z,52.25
2022-09-12T17:11:48.162Z,52.70
2022-09-12T17:14:15.979Z,52.19
2022-09-12T17:16:51.553Z,52.23
2022-09-12T17:19:28.274Z,52.88
2022-09-12T17:21:58.788Z,52.93
2022-09-12T17:24:27.069Z,53.01
2022-09-12T17:26:54.877Z,53.41
2022-09-12T17:29:22.545Z,54.27
2022-09-12T17:31:52.020Z,53.74
2022-09-12T17:34:27.174Z,54.71
2022-09-12T17:36:54.825Z,53.78
2022-09-12T17:39:22.521Z,53.99
2022-09-12T17:41:52.099Z,54.78
2022-09-12T17:44:19.998Z,54.63
2022-09-12T17:46:47.659Z,53.93
2022-09-12T17:49:18.685Z,54.66
2022-09-12T17:51:46.385Z,54.23
2022-09-12T17:54:20.867Z,54.52
2022-09-12T17:56:49.938Z,53.33
2022-09-12T17:59:21.871Z,54.08
2022-09-12T18:02:08.285Z,55.20
2022-09-12T18:04:36.138Z,55.62
2022-09-12T18:07:06.138Z,55.92
2022-09-12T18:09:36.377Z,56.19
2022-09-12T18:12:05.547Z,56.99
2022-09-12T18:14:33.283Z,59.15
2022-09-12T18:17:01.117Z,59.32
2022-09-12T18:19:29.615Z,59.34
2022-09-12T18:21:57.517Z,60.04
2022-09-12T18:24:25.447Z,59.22
2022-09-12T18:26:58.578Z,59.41
2022-09-12T18:29:28.122Z,60.64
2022-09-12T18:31:56.172Z,62.59
2022-09-12T18:34:25.692Z,62.09
2022-09-12T18:36:56.878Z,63.27
2022-09-12T18:39:27.640Z,63.55
2022-09-12T18:41:55.623Z,61.46
2022-09-12T18:44:23.248Z,61.33
2022-09-12T18:46:51.422Z,61.52
2022-09-12T18:49:19.138Z,62.96
2022-09-12T18:51:50.544Z,62.41
2022-09-12T18:54:18.345Z,62.28
2022-09-12T18:56:46.026Z,61.15
2022-09-12T18:59:15.847Z,60.91
2022-09-12T19:01:44.427Z,61.00
2022-09-12T19:04:16.679Z,64.24
2022-09-12T19:06:48.306Z,63.44
2022-09-12T19:09:20.802Z,64.40
2022-09-12T19:11:50.061Z,65.16
2022-09-12T19:14:24.989Z,64.64
2022-09-12T19:16:53.756Z,64.71
2022-09-12T19:19:22.065Z,65.99
2022-09-12T19:21:51.023Z,64.41
2022-09-12T19:24:22.258Z,63.07
2022-09-12T19:26:53.492Z,63.47
2022-09-12T19:29:21.252Z,64.58
2022-09-12T19:31:49.059Z,63.23
2022-09-12T19:34:17.303Z,63.98
2022-09-12T19:36:46.649Z,63.47
2022-09-12T19:39:21.927Z,64.81
2022-09-12T19:41:49.572Z,66.22
2022-09-12T19:44:19.399Z,65.71
2022-09-12T19:46:47.207Z,64.50
2022-09-12T19:49:14.903Z,64.61
2022-09-12T19:51:42.685Z,64.63
2022-09-12T19:54:13.808Z,63.96
2022-09-12T19:56:43.628Z,65.77
2022-09-12T19:59:11.849Z,68.84
2022-09-12T20:01:41.520Z,68.63
2022-09-12T20:04:09.305Z,68.61
2022-09-12T20:06:36.994Z,68.89
2022-09-12T20:09:05.214Z,69.27
2022-09-12T20:11:34.776Z,70.42
2022-09-12T20:14:02.648Z,70.96
2022-09-12T20:16:31.148Z,72.01
2022-09-12T20:19:07.164Z,72.94
2022-09-12T20:21:36.608Z,73.77
2022-09-12T20:24:12.889Z,75.23
2022-09-12T20:26:41.695Z,75.77
2022-09-12T20:29:10.800Z,74.93
2022-09-12T20:31:41.864Z,74.32
2022-09-12T20:34:19.464Z,74.63
2022-09-12T20:36:48.643Z,71.88
2022-09-12T20:39:21.396Z,70.94
2022-09-12T20:41:52.513Z,70.33
2022-09-12T20:44:20.802Z,68.94
2022-09-12T20:46:52.661Z,69.05
2022-09-12T20:49:20.456Z,69.81
2022-09-12T20:51:48.548Z,71.32
2022-09-12T20:54:16.548Z,71.89
2022-09-12T20:56:44.843Z,71.87
2022-09-12T20:59:13.135Z,72.06
2022-09-12T21:01:44.151Z,69.55
2022-09-12T21:04:14.998Z,69.89
2022-09-12T21:06:43.109Z,72.38
2022-09-12T21:09:10.762Z,73.09
2022-09-12T21:11:38.432Z,72.76
2022-09-12T21:14:07.925Z,70.70
2022-09-12T21:16:38.820Z,73.04
2022-09-12T21:19:08.392Z,73.38
2022-09-12T21:21:36.746Z,74.91
2022-09-12T21:24:05.681Z,77.54
2022-09-12T21:26:36.875Z,75.83
2022-09-12T21:29:04.519Z,76.85
2022-09-12T21:31:32.205Z,76.93
2022-09-12T21:34:01.773Z,77.38
2022-09-12T21:36:29.412Z,77.91
2022-09-12T21:38:59.695Z,79.94
2022-09-12T21:41:27.476Z,79.37
2022-09-12T21:43:56.930Z,80.89
2022-09-12T21:46:24.739Z,79.93
2022-09-12T21:48:52.559Z,79.56
2022-09-12T21:51:21.017Z,81.52
2022-09-12T21:53:48.944Z,81.59
2022-09-12T21:56:16.743Z,81.46
2022-09-12T21:58:44.488Z,80.24
2022-09-12T22:01:13.123Z,82.18
2022-09-12T22:03:43.328Z,81.02
2022-09-12T22:06:14.442Z,80.88
2022-09-12T22:08:42.482Z,83.18
2022-09-12T22:11:13.025Z,83.36
2022-09-12T22:13:45.668Z,83.79
2022-09-12T22:16:13.706Z,85.40
2022-09-12T22:18:47.182Z,87.38
2022-09-12T22:21:20.888Z,85.38
2022-09-12T22:24:07.275Z,84.12
2022-09-12T22:26:46.262Z,86.65
2022-09-12T22:29:15.804Z,85.60
2022-09-12T22:31:44.678Z,84.96
2022-09-12T22:34:13.505Z,85.21
2022-09-12T22:36:41.961Z,84.40
2022-09-12T22:39:09.794Z,85.14
2022-09-12T22:41:38.263Z,83.11
2022-09-12T22:44:06.647Z,85.74
2022-09-12T22:46:35.268Z,87.46
2022-09-12T22:49:04.793Z,85.90
2022-09-12T22:51:34.227Z,87.47
2022-09-12T22:54:03.262Z,87.32
2022-09-12T22:56:30.981Z,88.82
2022-09-12T22:58:59.656Z,89.84
2022-09-12T23:01:27.612Z,91.34
2022-09-12T23:03:56.286Z,90.06
2022-09-12T23:06:26.536Z,90.10
2022-09-12T23:08:54.554Z,90.93
2022-09-12T23:11:24.582Z,91.16
2022-09-12T23:13:52.320Z,90.66
2022-09-12T23:16:25.871Z,90.46
2022-09-12T23:18:55.398Z,90.08
2022-09-12T23:21:23.937Z,89.46
2022-09-12T23:23:51.883Z,90.11
2022-09-12T23:26:24.306Z,89.89
2022-09-12T23:29:00.960Z,90.57
2022-09-12T23:31:33.097Z,89.86
2022-09-12T23:34:05.958Z,91.07
2022-09-12T23:36:35.102Z,92.31
2022-09-12T23:39:04.171Z,92.67
2022-09-12T23:41:32.372Z,93.04
2022-09-12T23:44:00.975Z,93.73
2022-09-12T23:46:30.585Z,94.41
2022-09-12T23:48:58.269Z,94.75
2022-09-12T23:51:27.281Z,93.81
2022-09-12T23:53:55.006Z,94.15
2022-09-12T23:56:22.750Z,92.46
2022-09-12T23:58:51.488Z,92.79
